JM-0003 weather

Tulloch Airstrip
Bog Walk, Saint Catherine, Jamaica

Public forecast

Using degrees Celsius for public forecast. Weather courtesy of forecast.io.

METAR (pilot weather report)

Closest report is Norman Manley International Airport, 15.3 nm (28.3 km) SE. Retrieved 2019/04/23 02:00 UTC (8 minutes ago):

MKJP 230200Z 31009KT 9999 FEW022 27/21 Q1014

TAF (pilot weather forecast)

Forecast is more than 12 hours old.

Closest forecast is Norman Manley International Airport, 15.3 nm (28.3 km) SE. Retrieved 2019/04/22 00:25 UTC (1 day ago):

TAF MKJP 222315Z 2300/2324 36003KT 9999 FEW022 BECMG 2314/2316 18005KT PROB30 TEMPO 2318/2324 SHRA BKN018